createdAt,value
2018-06-16T00:01:05.414Z,26.97
2018-06-16T00:03:33.654Z,28.57
2018-06-16T00:06:01.910Z,26.33
2018-06-16T00:08:30.159Z,28.30
2018-06-16T00:10:58.461Z,27.73
2018-06-16T00:13:26.715Z,25.25
2018-06-16T00:15:54.944Z,28.35
2018-06-16T00:18:23.253Z,31.62
2018-06-16T00:20:51.501Z,30.70
2018-06-16T00:23:19.786Z,28.67
2018-06-16T00:25:48.066Z,29.42
2018-06-16T00:28:16.301Z,29.07
2018-06-16T00:30:44.624Z,30.12
2018-06-16T00:33:13.019Z,32.90
2018-06-16T00:35:41.279Z,30.43
2018-06-16T00:38:09.520Z,30.57
2018-06-16T00:40:37.798Z,28.73
2018-06-16T00:43:06.035Z,28.73
2018-06-16T00:45:34.283Z,31.45
2018-06-16T00:48:02.534Z,29.85
2018-06-16T00:50:30.829Z,29.75
2018-06-16T00:52:59.148Z,30.05
2018-06-16T00:55:27.338Z,30.97
2018-06-16T00:57:55.603Z,29.80
2018-06-16T01:00:23.832Z,31.13
2018-06-16T01:02:52.096Z,30.12
2018-06-16T01:05:20.127Z,29.82
2018-06-16T01:07:48.386Z,28.67
2018-06-16T01:10:16.646Z,31.48
2018-06-16T01:12:44.909Z,29.70
2018-06-16T01:15:13.160Z,29.95
2018-06-16T01:17:41.429Z,28.45
2018-06-16T01:20:09.701Z,28.55
2018-06-16T01:22:37.989Z,29.25
2018-06-16T01:25:06.270Z,31.15
2018-06-16T01:27:34.507Z,28.47
2018-06-16T01:30:02.761Z,29.57
2018-06-16T01:32:30.995Z,28.23
2018-06-16T01:34:59.269Z,32.42
2018-06-16T01:37:27.578Z,28.20
2018-06-16T01:39:55.810Z,29.20
2018-06-16T01:42:24.082Z,32.28
2018-06-16T01:44:52.670Z,32.90
2018-06-16T01:47:20.930Z,31.20
2018-06-16T01:49:49.239Z,31.25
2018-06-16T01:52:17.488Z,33.10
2018-06-16T01:54:45.854Z,32.28
2018-06-16T01:57:13.842Z,31.80
2018-06-16T01:59:42.076Z,31.53
2018-06-16T02:02:10.396Z,33.67
2018-06-16T02:04:38.647Z,33.07
2018-06-16T02:07:06.917Z,32.93
2018-06-16T02:09:35.182Z,31.70
2018-06-16T02:12:03.159Z,35.68
2018-06-16T02:14:31.154Z,32.70
2018-06-16T02:16:59.147Z,34.67
2018-06-16T02:19:27.399Z,33.20
2018-06-16T02:21:55.634Z,34.67
2018-06-16T02:24:24.012Z,32.67
2018-06-16T02:26:52.311Z,32.13
2018-06-16T02:29:22.291Z,37.88
2018-06-16T02:31:53.311Z,37.23
2018-06-16T02:34:23.337Z,33.73
2018-06-16T02:36:52.897Z,35.10
2018-06-16T02:39:22.306Z,33.78
2018-06-16T02:41:50.599Z,35.50
2018-06-16T02:44:18.851Z,34.63
2018-06-16T02:46:47.134Z,33.33
2018-06-16T02:49:15.581Z,34.85
2018-06-16T02:51:43.915Z,34.15
2018-06-16T02:54:12.121Z,34.83
2018-06-16T02:56:40.395Z,35.52
2018-06-16T02:59:08.650Z,38.30
2018-06-16T03:01:36.920Z,35.20
2018-06-16T03:04:05.162Z,33.53
2018-06-16T03:06:33.603Z,36.10
2018-06-16T03:09:01.865Z,35.05
2018-06-16T03:11:30.135Z,35.75
2018-06-16T03:13:58.367Z,34.98
2018-06-16T03:16:26.634Z,33.65
2018-06-16T03:18:54.879Z,35.70
2018-06-16T03:21:23.183Z,36.08
2018-06-16T03:23:51.450Z,44.55
2018-06-16T03:26:19.711Z,35.70
2018-06-16T03:28:47.937Z,35.35
2018-06-16T03:31:16.228Z,33.10
2018-06-16T03:33:44.469Z,34.23
2018-06-16T03:36:12.699Z,32.58
2018-06-16T03:38:40.969Z,34.57
2018-06-16T03:41:09.243Z,36.95
2018-06-16T03:43:37.486Z,32.67
2018-06-16T03:46:05.815Z,32.53
2018-06-16T03:48:34.114Z,35.90
2018-06-16T03:51:02.120Z,33.58
2018-06-16T03:53:30.369Z,32.88
2018-06-16T03:55:58.641Z,37.28
2018-06-16T03:58:26.902Z,30.45
2018-06-16T04:00:55.158Z,35.58
2018-06-16T04:03:23.414Z,35.88
2018-06-16T04:05:51.643Z,33.42
2018-06-16T04:08:19.868Z,31.65
2018-06-16T04:10:48.138Z,30.75
2018-06-16T04:13:16.407Z,33.25
2018-06-16T04:15:45.190Z,29.00
2018-06-16T04:18:13.424Z,27.82
2018-06-16T04:20:41.678Z,27.87
2018-06-16T04:23:09.943Z,28.27
2018-06-16T04:25:38.175Z,27.93
2018-06-16T04:28:06.408Z,29.40
2018-06-16T04:30:34.827Z,28.50
2018-06-16T04:33:03.076Z,27.27
2018-06-16T04:35:31.351Z,28.40
2018-06-16T04:37:59.605Z,29.87
2018-06-16T04:40:27.863Z,26.73
2018-06-16T04:42:56.142Z,26.50
2018-06-16T04:45:24.426Z,28.92
2018-06-16T04:47:52.631Z,24.35
2018-06-16T04:50:20.859Z,24.40
2018-06-16T04:52:49.127Z,25.50
2018-06-16T04:55:17.427Z,25.50
2018-06-16T04:57:45.734Z,23.47
2018-06-16T05:00:14.093Z,24.30
2018-06-16T05:02:42.350Z,22.02
2018-06-16T05:05:10.625Z,23.75
2018-06-16T05:07:39.482Z,20.17
2018-06-16T05:10:08.070Z,21.27
2018-06-16T05:12:36.310Z,22.50
2018-06-16T05:15:05.046Z,22.30
2018-06-16T05:17:33.392Z,21.37
2018-06-16T05:20:01.624Z,18.45
2018-06-16T05:22:29.898Z,20.70
2018-06-16T05:24:58.209Z,20.48
2018-06-16T05:27:26.630Z,19.20
2018-06-16T05:29:54.950Z,17.23
2018-06-16T05:32:23.311Z,18.02
2018-06-16T05:34:51.618Z,19.37
2018-06-16T05:37:19.891Z,15.48
2018-06-16T05:39:48.156Z,16.77
2018-06-16T05:42:16.458Z,16.75
2018-06-16T05:44:44.718Z,17.20
2018-06-16T05:47:12.985Z,17.57
2018-06-16T05:49:41.267Z,15.80
2018-06-16T05:52:09.680Z,17.98
2018-06-16T05:54:37.781Z,17.45
2018-06-16T05:57:06.011Z,18.48
2018-06-16T05:59:34.273Z,14.63
2018-06-16T06:02:02.527Z,17.47
2018-06-16T06:04:30.785Z,14.38
2018-06-16T06:06:59.677Z,15.40
2018-06-16T06:09:32.948Z,15.68
2018-06-16T06:12:03.410Z,14.30
2018-06-16T06:14:35.630Z,14.63
2018-06-16T06:17:04.759Z,14.23
2018-06-16T06:19:33.004Z,13.35
2018-06-16T06:22:01.294Z,14.83
2018-06-16T06:24:30.214Z,14.10
2018-06-16T06:26:58.454Z,18.48
2018-06-16T06:29:31.947Z,14.10
2018-06-16T06:32:00.268Z,16.32
2018-06-16T06:34:28.525Z,13.78
2018-06-16T06:36:56.774Z,14.47
2018-06-16T06:39:25.081Z,17.30
2018-06-16T06:41:53.323Z,14.43
2018-06-16T06:44:21.617Z,13.85
2018-06-16T06:46:49.882Z,14.68
2018-06-16T06:49:18.730Z,15.90
2018-06-16T06:51:47.175Z,13.70
2018-06-16T06:54:15.416Z,15.00
2018-06-16T06:56:43.650Z,11.17
2018-06-16T06:59:11.902Z,15.23
2018-06-16T07:01:40.327Z,14.30
2018-06-16T07:04:08.574Z,14.43
2018-06-16T07:06:36.805Z,14.33
2018-06-16T07:09:07.746Z,10.93
2018-06-16T07:11:36.361Z,15.63
2018-06-16T07:14:04.623Z,12.17
2018-06-16T07:16:32.912Z,12.07
2018-06-16T07:19:01.495Z,12.50
2018-06-16T07:21:29.795Z,11.73
2018-06-16T07:23:58.059Z,11.10
2018-06-16T07:26:26.314Z,13.00
2018-06-16T07:28:54.584Z,13.68
2018-06-16T07:31:22.875Z,13.80
2018-06-16T07:33:51.149Z,12.28
2018-06-16T07:36:20.321Z,8.70
2018-06-16T07:38:49.160Z,13.72
2018-06-16T07:41:19.441Z,11.63
2018-06-16T07:43:47.870Z,11.55
2018-06-16T07:46:16.447Z,13.40
2018-06-16T07:48:52.011Z,11.78
2018-06-16T07:51:20.349Z,13.68
2018-06-16T07:53:48.594Z,12.30
2018-06-16T07:56:16.847Z,13.20
2018-06-16T07:58:45.118Z,14.55
2018-06-16T08:01:13.389Z,14.57
2018-06-16T08:03:41.874Z,9.30
2018-06-16T08:06:10.164Z,11.90
2018-06-16T08:08:38.479Z,13.50
2018-06-16T08:11:06.726Z,13.88
2018-06-16T08:13:35.158Z,14.75
2018-06-16T08:16:03.427Z,11.93
2018-06-16T08:18:31.668Z,13.00
2018-06-16T08:20:59.958Z,12.30
2018-06-16T08:23:28.227Z,8.53
2018-06-16T08:25:56.506Z,10.08
2018-06-16T08:28:24.767Z,11.68
2018-06-16T08:30:53.095Z,12.37
2018-06-16T08:33:22.011Z,11.00
2018-06-16T08:35:58.171Z,14.23
2018-06-16T08:38:34.119Z,11.00
2018-06-16T08:41:02.376Z,11.80
2018-06-16T08:43:30.700Z,12.98
2018-06-16T08:46:04.772Z,14.40
2018-06-16T08:48:33.156Z,16.05
2018-06-16T08:51:01.548Z,12.05
2018-06-16T08:53:29.826Z,10.10
2018-06-16T08:55:58.098Z,10.65
2018-06-16T08:58:26.376Z,10.43
2018-06-16T09:00:54.659Z,11.48
2018-06-16T09:03:22.643Z,24.47
2018-06-16T09:05:50.928Z,13.22
2018-06-16T09:08:19.201Z,12.68
2018-06-16T09:10:47.199Z,13.80
2018-06-16T09:13:15.463Z,11.80
2018-06-16T09:15:44.410Z,13.13
2018-06-16T09:18:12.650Z,10.32
2018-06-16T09:20:40.910Z,11.40
2018-06-16T09:23:09.127Z,15.03
2018-06-16T09:25:37.384Z,12.07
2018-06-16T09:28:14.998Z,12.43
2018-06-16T09:30:43.285Z,13.95
2018-06-16T09:33:12.329Z,15.03
2018-06-16T09:35:41.058Z,16.35
2018-06-16T09:38:09.328Z,12.03
2018-06-16T09:40:37.298Z,13.20
2018-06-16T09:43:05.669Z,13.63
2018-06-16T09:45:33.983Z,16.40
2018-06-16T09:48:02.251Z,11.85
2018-06-16T09:50:30.518Z,17.00
2018-06-16T09:52:58.927Z,14.03
2018-06-16T09:55:33.371Z,15.03
2018-06-16T09:58:03.430Z,18.50
2018-06-16T10:00:37.043Z,17.02
2018-06-16T10:03:05.068Z,18.42
2018-06-16T10:05:33.311Z,15.70
2018-06-16T10:08:01.563Z,14.95
2018-06-16T10:10:29.854Z,20.70
2018-06-16T10:12:58.116Z,18.90
2018-06-16T10:15:26.348Z,16.17
2018-06-16T10:18:04.309Z,13.25
2018-06-16T10:20:32.998Z,12.63
2018-06-16T10:23:01.269Z,15.23
2018-06-16T10:25:29.253Z,16.57
2018-06-16T10:27:57.277Z,16.55
2018-06-16T10:30:25.601Z,15.63
2018-06-16T10:32:53.854Z,13.83
2018-06-16T10:35:22.134Z,13.32
2018-06-16T10:37:50.455Z,13.80
2018-06-16T10:40:18.754Z,10.68
2018-06-16T10:42:47.039Z,12.10
2018-06-16T10:45:15.303Z,9.68
2018-06-16T10:47:43.555Z,7.90
2018-06-16T10:50:11.797Z,9.80
2018-06-16T10:52:40.066Z,6.15
2018-06-16T10:55:08.335Z,6.70
2018-06-16T10:57:36.571Z,9.05
2018-06-16T11:00:05.122Z,6.50
2018-06-16T11:02:33.381Z,8.85
2018-06-16T11:05:01.385Z,6.20
2018-06-16T11:07:29.620Z,8.07
2018-06-16T11:09:57.931Z,6.70
2018-06-16T11:12:26.254Z,6.20
2018-06-16T11:14:54.517Z,9.85
2018-06-16T11:17:22.539Z,11.68
2018-06-16T11:19:50.869Z,10.32
2018-06-16T11:22:19.201Z,7.83
2018-06-16T11:24:47.485Z,6.67
2018-06-16T11:27:15.717Z,7.40
2018-06-16T11:29:44.084Z,8.48
2018-06-16T11:32:15.418Z,6.75
2018-06-16T11:34:43.682Z,6.65
2018-06-16T11:37:11.917Z,6.67
2018-06-16T11:39:40.142Z,10.65
2018-06-16T11:42:08.378Z,7.60
2018-06-16T11:44:36.633Z,10.70
2018-06-16T11:47:08.964Z,12.25
2018-06-16T11:49:37.803Z,8.73
2018-06-16T11:52:07.036Z,9.15
2018-06-16T11:54:35.300Z,9.00
2018-06-16T11:57:03.692Z,10.88
2018-06-16T11:59:31.943Z,9.53
2018-06-16T12:02:04.792Z,9.03
2018-06-16T12:04:32.819Z,7.65
2018-06-16T12:07:01.090Z,9.75
2018-06-16T12:09:29.337Z,11.12
2018-06-16T12:11:57.597Z,8.58
2018-06-16T12:14:26.006Z,11.00
2018-06-16T12:16:54.256Z,10.03
2018-06-16T12:19:22.528Z,11.25
2018-06-16T12:21:50.807Z,11.43
2018-06-16T12:24:18.821Z,12.03
2018-06-16T12:26:47.066Z,9.65
2018-06-16T12:29:15.294Z,11.33
2018-06-16T12:31:43.547Z,10.83
2018-06-16T12:34:11.801Z,9.25
2018-06-16T12:36:40.166Z,10.40
2018-06-16T12:39:09.756Z,11.12
2018-06-16T12:41:38.019Z,13.78
2018-06-16T12:44:06.439Z,7.92
2018-06-16T12:46:34.745Z,8.93
2018-06-16T12:49:05.769Z,12.13
2018-06-16T12:51:34.217Z,13.10
2018-06-16T12:54:02.753Z,11.08
2018-06-16T12:56:31.071Z,10.38
2018-06-16T12:58:59.263Z,10.38
2018-06-16T13:01:27.538Z,10.40
2018-06-16T13:03:55.931Z,12.33
2018-06-16T13:06:24.296Z,9.28
2018-06-16T13:08:52.544Z,8.63
2018-06-16T13:11:20.804Z,10.32
2018-06-16T13:13:49.112Z,8.68
2018-06-16T13:16:17.502Z,9.73
2018-06-16T13:18:45.741Z,11.75
2018-06-16T13:21:13.971Z,10.05
2018-06-16T13:23:42.225Z,11.90
2018-06-16T13:26:10.680Z,8.15
2018-06-16T13:28:38.926Z,8.40
2018-06-16T13:31:07.216Z,9.50
2018-06-16T13:33:35.462Z,9.18
2018-06-16T13:36:03.756Z,9.08
2018-06-16T13:38:36.706Z,10.82
2018-06-16T13:41:05.008Z,9.10
2018-06-16T13:43:33.249Z,8.33
2018-06-16T13:46:01.531Z,10.13
2018-06-16T13:48:30.158Z,12.68
2018-06-16T13:50:58.464Z,9.80
2018-06-16T13:53:26.724Z,8.20
2018-06-16T13:55:54.989Z,8.93
2018-06-16T13:58:23.586Z,9.60
2018-06-16T14:00:51.816Z,9.48
2018-06-16T14:03:21.058Z,8.28
2018-06-16T14:05:55.061Z,8.10
2018-06-16T14:08:25.787Z,8.18
2018-06-16T14:10:54.486Z,7.12
2018-06-16T14:13:22.753Z,7.87
2018-06-16T14:15:51.017Z,6.83
2018-06-16T14:18:19.295Z,5.78
2018-06-16T14:20:47.529Z,8.65
2018-06-16T14:23:15.772Z,7.42
2018-06-16T14:25:44.319Z,9.53
2018-06-16T14:28:12.587Z,10.88
2018-06-16T14:30:40.836Z,7.95
2018-06-16T14:33:09.102Z,7.30
2018-06-16T14:35:37.462Z,7.75
2018-06-16T14:38:06.015Z,5.92
2018-06-16T14:40:34.366Z,7.55
2018-06-16T14:43:03.678Z,8.40
2018-06-16T14:45:31.983Z,6.85
2018-06-16T14:48:00.205Z,7.28
2018-06-16T14:50:29.785Z,5.70
2018-06-16T14:52:58.025Z,6.15
2018-06-16T14:55:26.322Z,5.53
2018-06-16T14:57:54.611Z,7.20
2018-06-16T15:00:22.687Z,5.78
2018-06-16T15:02:50.992Z,6.62
2018-06-16T15:05:19.223Z,7.03
2018-06-16T15:07:47.479Z,7.53
2018-06-16T15:10:15.753Z,8.20
2018-06-16T15:12:43.779Z,7.50
2018-06-16T15:15:12.043Z,7.90
2018-06-16T15:17:40.286Z,10.03
2018-06-16T15:20:08.572Z,5.03
2018-06-16T15:22:36.794Z,5.70
2018-06-16T15:25:05.041Z,7.58
2018-06-16T15:27:33.304Z,9.50
2018-06-16T15:30:01.541Z,6.40
2018-06-16T15:32:29.780Z,6.35
2018-06-16T15:34:58.026Z,5.57
2018-06-16T15:37:26.554Z,7.58
2018-06-16T15:39:54.797Z,9.38
2018-06-16T15:42:23.135Z,6.43
2018-06-16T15:44:51.390Z,5.27
2018-06-16T15:47:19.872Z,5.00
2018-06-16T15:49:48.095Z,6.77
2018-06-16T15:52:16.337Z,6.22
2018-06-16T15:54:44.608Z,6.72
2018-06-16T15:57:12.969Z,7.25
2018-06-16T15:59:41.213Z,5.10
2018-06-16T16:02:09.452Z,5.70
2018-06-16T16:04:37.709Z,9.17
2018-06-16T16:07:06.020Z,5.72
2018-06-16T16:09:34.270Z,6.80
2018-06-16T16:12:02.526Z,5.28
2018-06-16T16:14:30.810Z,8.75
2018-06-16T16:16:59.481Z,7.72
2018-06-16T16:19:27.734Z,7.77
2018-06-16T16:21:56.055Z,6.67
2018-06-16T16:24:24.329Z,5.43
2018-06-16T16:26:52.551Z,7.70
2018-06-16T16:29:20.785Z,8.53
2018-06-16T16:31:49.031Z,7.40
2018-06-16T16:34:17.276Z,4.50
2018-06-16T16:36:45.510Z,5.67
2018-06-16T16:39:13.792Z,5.90
2018-06-16T16:41:42.058Z,5.40
2018-06-16T16:44:10.301Z,7.43
2018-06-16T16:46:38.546Z,4.25
2018-06-16T16:49:07.013Z,6.45
2018-06-16T16:51:35.326Z,6.42
2018-06-16T16:54:03.517Z,5.15
2018-06-16T16:56:31.842Z,5.55
2018-06-16T16:59:00.216Z,5.97
2018-06-16T17:01:28.463Z,6.67
2018-06-16T17:03:56.762Z,5.80
2018-06-16T17:06:25.070Z,6.50
2018-06-16T17:08:53.370Z,6.17
2018-06-16T17:11:21.659Z,4.70
2018-06-16T17:13:49.899Z,9.00
2018-06-16T17:16:18.148Z,8.50
2018-06-16T17:18:46.398Z,7.40
2018-06-16T17:21:14.751Z,8.23
2018-06-16T17:23:43.005Z,8.08
2018-06-16T17:26:11.218Z,8.78
2018-06-16T17:28:39.494Z,7.70
2018-06-16T17:31:07.732Z,5.70
2018-06-16T17:33:36.071Z,8.73
2018-06-16T17:36:04.457Z,7.83
2018-06-16T17:38:32.729Z,6.50
2018-06-16T17:41:00.959Z,8.10
2018-06-16T17:43:28.958Z,9.08
2018-06-16T17:45:56.943Z,7.22
2018-06-16T17:48:25.285Z,10.00
2018-06-16T17:50:53.550Z,7.75
2018-06-16T17:53:21.797Z,7.40
2018-06-16T17:55:50.044Z,7.40
2018-06-16T17:58:18.303Z,8.40
2018-06-16T18:00:46.525Z,7.00
2018-06-16T18:03:14.954Z,6.25
2018-06-16T18:05:43.302Z,12.00
2018-06-16T18:08:11.558Z,10.35
2018-06-16T18:10:39.825Z,14.38
2018-06-16T18:13:07.804Z,10.78
2018-06-16T18:15:35.829Z,12.50
2018-06-16T18:18:04.023Z,15.75
2018-06-16T18:20:32.305Z,15.28
2018-06-16T18:23:00.549Z,14.93
2018-06-16T18:25:29.890Z,15.65
2018-06-16T18:27:58.130Z,59.80
2018-06-16T18:30:26.554Z,20.20
2018-06-16T18:32:54.807Z,29.50
2018-06-16T18:35:23.066Z,22.20
2018-06-16T18:37:51.306Z,13.25
2018-06-16T18:40:19.639Z,14.25
2018-06-16T18:42:47.910Z,19.27
2018-06-16T18:45:16.182Z,20.95
2018-06-16T18:47:44.195Z,14.85
2018-06-16T18:50:12.493Z,15.25
2018-06-16T18:55:31.491Z,15.10
2018-06-16T18:57:59.748Z,13.48
2018-06-16T19:00:27.999Z,13.87
2018-06-16T19:02:56.294Z,16.27
2018-06-16T19:05:24.629Z,17.13
2018-06-16T19:07:53.182Z,17.82
2018-06-16T19:10:21.411Z,12.95
2018-06-16T19:12:49.667Z,13.28
2018-06-16T19:15:17.916Z,15.80
2018-06-16T19:17:46.192Z,14.85
2018-06-16T19:20:14.429Z,12.25
2018-06-16T19:22:42.651Z,13.78
2018-06-16T19:25:10.906Z,12.28
2018-06-16T19:27:39.153Z,13.90
2018-06-16T19:30:07.412Z,14.85
2018-06-16T19:32:35.681Z,13.05
2018-06-16T19:35:03.688Z,15.30
2018-06-16T19:37:31.957Z,15.15
2018-06-16T19:40:00.069Z,14.63
2018-06-16T19:42:28.315Z,14.07
2018-06-16T19:44:56.610Z,16.25
2018-06-16T19:47:25.791Z,15.78
2018-06-16T19:49:54.267Z,12.07
2018-06-16T19:52:22.546Z,13.65
2018-06-16T19:54:50.762Z,15.18
2018-06-16T19:57:19.031Z,15.98
2018-06-16T19:59:47.270Z,14.63
2018-06-16T20:02:15.683Z,13.08
2018-06-16T20:04:43.935Z,14.07
2018-06-16T20:07:12.226Z,12.98
2018-06-16T20:09:40.466Z,10.68
2018-06-16T20:12:08.707Z,12.00
2018-06-16T20:14:36.999Z,12.55
2018-06-16T20:17:05.230Z,12.20
2018-06-16T20:19:33.573Z,13.50
2018-06-16T20:22:01.863Z,13.80
2018-06-16T20:24:32.130Z,14.35
2018-06-16T20:27:00.373Z,12.07
2018-06-16T20:29:28.812Z,10.38
2018-06-16T20:31:57.087Z,14.47
2018-06-16T20:34:25.437Z,15.40
2018-06-16T20:36:54.518Z,16.57
2018-06-16T20:39:22.750Z,12.50
2018-06-16T20:41:51.030Z,11.28
2018-06-16T20:44:19.299Z,14.68
2018-06-16T20:46:47.574Z,14.75
2018-06-16T20:49:15.859Z,15.10
2018-06-16T20:51:44.124Z,13.38
2018-06-16T20:54:12.492Z,13.45
2018-06-16T20:56:40.515Z,11.28
2018-06-16T20:59:08.759Z,12.25
2018-06-16T21:01:37.064Z,12.90
2018-06-16T21:04:05.157Z,14.95
2018-06-16T21:06:33.434Z,14.18
2018-06-16T21:09:01.423Z,12.83
2018-06-16T21:11:29.696Z,13.55
2018-06-16T21:13:57.989Z,15.50
2018-06-16T21:16:26.347Z,13.57
2018-06-16T21:18:54.635Z,13.20
2018-06-16T21:21:23.262Z,14.90
2018-06-16T21:23:51.490Z,15.75
2018-06-16T21:26:19.750Z,15.45
2018-06-16T21:28:48.086Z,17.00
2018-06-16T21:31:16.918Z,15.43
2018-06-16T21:33:45.185Z,15.15
2018-06-16T21:36:13.449Z,15.75
2018-06-16T21:38:41.697Z,18.75
2018-06-16T21:41:10.069Z,17.07
2018-06-16T21:43:38.300Z,18.62
2018-06-16T21:46:06.644Z,15.10
2018-06-16T21:48:34.901Z,14.30
2018-06-16T21:51:03.673Z,17.80
2018-06-16T21:53:31.954Z,15.30
2018-06-16T21:56:00.195Z,18.00
2018-06-16T21:58:28.479Z,14.87
2018-06-16T22:00:56.856Z,17.32
2018-06-16T22:03:25.119Z,17.55
2018-06-16T22:05:53.465Z,17.80
2018-06-16T22:08:27.048Z,21.02
2018-06-16T22:10:55.354Z,19.62
2018-06-16T22:13:23.583Z,18.45
2018-06-16T22:15:51.814Z,15.98
2018-06-16T22:18:20.198Z,18.87
2018-06-16T22:20:48.537Z,18.52
2018-06-16T22:23:16.836Z,16.87
2018-06-16T22:25:45.127Z,17.57
2018-06-16T22:28:13.133Z,20.23
2018-06-16T22:30:41.451Z,18.42
2018-06-16T22:33:09.686Z,18.73
2018-06-16T22:35:37.942Z,17.00
2018-06-16T22:38:06.180Z,17.70
2018-06-16T22:40:34.432Z,18.12
2018-06-16T22:43:02.730Z,17.27
2018-06-16T22:45:30.997Z,18.57
2018-06-16T22:47:59.261Z,18.40
2018-06-16T22:50:27.600Z,19.60
2018-06-16T22:52:56.034Z,19.37
2018-06-16T22:55:24.319Z,19.62
2018-06-16T22:57:52.552Z,19.60
2018-06-16T23:00:24.653Z,20.00
2018-06-16T23:02:52.935Z,18.30
2018-06-16T23:05:21.754Z,21.17
2018-06-16T23:07:50.010Z,19.98
2018-06-16T23:10:18.255Z,21.50
2018-06-16T23:12:46.503Z,21.40
2018-06-16T23:15:14.830Z,21.60
2018-06-16T23:17:43.091Z,19.70
2018-06-16T23:20:11.364Z,20.75
2018-06-16T23:22:39.958Z,21.65
2018-06-16T23:25:08.198Z,21.10
2018-06-16T23:27:36.490Z,24.15
2018-06-16T23:30:04.846Z,22.13
2018-06-16T23:32:33.131Z,22.70
2018-06-16T23:35:01.113Z,22.57
2018-06-16T23:37:29.102Z,19.95
2018-06-16T23:39:57.373Z,20.75
2018-06-16T23:42:25.505Z,23.80
2018-06-16T23:44:53.849Z,17.98
2018-06-16T23:47:22.098Z,21.33
2018-06-16T23:49:50.320Z,22.25
2018-06-16T23:52:18.553Z,24.43
2018-06-16T23:54:46.874Z,19.92
2018-06-16T23:57:15.935Z,20.32
2018-06-16T23:59:44.194Z,20.90
